Time;durP1;ratioP1;P1;durP2;ratioP2;P2;SDS_P1;SDS_P2;PMS_P1;PMS_P2;Temp;Humidity;BMP_temperature;BMP_pressure;BME280_temperature;BME280_humidity;BME280_pressure;Samples;Min_cycle;Max_cycle;Signal;HPM_P1;HPM_P2
2022/07/04 00:00:14;;;;;;;2.95;2.13;;;19.80;99.90;;;;;;5029180;28;20034;-77
2022/07/04 00:02:41;;;;;;;3.83;2.05;;;19.80;99.90;;;;;;5029913;28;20026;-77
2022/07/04 00:05:10;;;;;;;4.40;1.95;;;19.80;99.90;;;;;;5029613;28;20065;-77
2022/07/04 00:07:36;;;;;;;4.35;2.30;;;19.90;99.90;;;;;;5029419;28;20029;-76
2022/07/04 00:10:03;;;;;;;6.68;2.10;;;19.90;99.90;;;;;;5029854;28;20025;-76
2022/07/04 00:12:29;;;;;;;2.50;1.73;;;19.90;99.90;;;;;;5028447;28;20049;-77
2022/07/04 00:14:54;;;;;;;5.35;1.85;;;19.90;99.90;;;;;;5029491;28;20065;-77
2022/07/04 00:17:20;;;;;;;3.58;2.13;;;19.90;99.90;;;;;;5029155;28;20025;-79
2022/07/04 00:19:45;;;;;;;4.40;2.08;;;20.00;99.90;;;;;;5032887;28;20097;-78
2022/07/04 00:22:11;;;;;;;3.83;1.92;;;20.00;99.90;;;;;;5026764;28;20033;-78
2022/07/04 00:24:36;;;;;;;7.90;2.30;;;20.00;99.90;;;;;;5032855;28;20068;-79
2022/07/04 00:27:02;;;;;;;3.20;1.90;;;20.00;99.90;;;;;;5034318;28;20041;-79
2022/07/04 00:29:29;;;;;;;5.25;2.10;;;20.00;99.90;;;;;;5033659;28;20033;-79
2022/07/04 00:31:55;;;;;;;7.78;2.38;;;20.00;99.90;;;;;;5032919;28;20528;-79
2022/07/04 00:34:20;;;;;;;5.22;2.22;;;19.90;99.90;;;;;;5032628;28;20030;-79
2022/07/04 00:36:46;;;;;;;3.60;2.10;;;19.90;99.90;;;;;;5034275;28;20035;-75
2022/07/04 00:39:12;;;;;;;6.35;2.40;;;19.90;99.90;;;;;;5049116;28;20095;-75
2022/07/04 00:41:37;;;;;;;6.03;2.40;;;19.70;99.90;;;;;;5033735;28;20029;-75
2022/07/04 00:44:06;;;;;;;3.38;2.40;;;19.60;99.90;;;;;;5035027;28;20029;-75
2022/07/04 00:46:31;;;;;;;7.28;2.72;;;19.50;99.90;;;;;;5033784;28;20082;-79
2022/07/04 00:48:57;;;;;;;3.95;2.58;;;19.40;99.90;;;;;;5032677;28;20034;-80
2022/07/04 00:51:24;;;;;;;4.53;2.42;;;19.30;99.90;;;;;;5033951;28;20083;-76
2022/07/04 00:53:51;;;;;;;3.72;2.38;;;19.30;99.90;;;;;;5035647;28;20045;-77
2022/07/04 00:56:17;;;;;;;4.72;2.20;;;19.20;99.90;;;;;;5035462;28;20549;-77
2022/07/04 00:58:43;;;;;;;5.07;2.20;;;19.10;99.90;;;;;;5035717;28;20022;-77
2022/07/04 01:01:08;;;;;;;4.15;2.17;;;19.00;99.90;;;;;;5035448;28;20052;-77
2022/07/04 01:03:34;;;;;;;3.50;2.28;;;19.00;99.90;;;;;;5035497;28;20048;-77
2022/07/04 01:06:00;;;;;;;4.82;2.20;;;18.90;99.90;;;;;;5034174;28;20030;-77
2022/07/04 01:08:26;;;;;;;4.03;2.38;;;18.80;99.90;;;;;;5033953;28;20433;-76
2022/07/04 01:10:52;;;;;;;4.65;2.50;;;18.80;99.90;;;;;;5031846;28;20091;-76
2022/07/04 01:13:22;;;;;;;3.88;2.53;;;18.80;99.90;;;;;;5032334;28;20104;-76
2022/07/04 01:15:48;;;;;;;4.93;2.47;;;18.80;99.90;;;;;;5031816;28;20041;-77
2022/07/04 01:18:14;;;;;;;6.00;2.20;;;18.70;99.90;;;;;;5031626;28;20029;-77
2022/07/04 01:20:39;;;;;;;4.35;2.35;;;18.60;99.90;;;;;;5032146;28;20340;-76
2022/07/04 01:23:05;;;;;;;3.92;2.55;;;18.60;99.90;;;;;;5025995;28;20083;-77
2022/07/04 01:25:32;;;;;;;4.18;2.00;;;18.50;99.90;;;;;;5032067;28;20036;-77
2022/07/04 01:28:00;;;;;;;3.15;2.05;;;18.50;99.90;;;;;;5031871;28;20041;-77
2022/07/04 01:30:27;;;;;;;3.03;2.20;;;18.40;99.90;;;;;;5031656;28;20124;-77
2022/07/04 01:32:53;;;;;;;3.17;2.22;;;18.40;99.90;;;;;;5031673;28;20033;-77
2022/07/04 01:35:19;;;;;;;5.15;2.50;;;18.40;99.90;;;;;;5033221;28;20079;-79
2022/07/04 01:37:45;;;;;;;3.85;1.80;;;18.40;99.90;;;;;;5031573;28;20097;-79
2022/07/04 01:40:12;;;;;;;4.90;2.17;;;18.30;99.90;;;;;;5031705;28;20109;-79
2022/07/04 01:42:38;;;;;;;5.72;2.65;;;18.30;99.90;;;;;;5031615;28;20033;-79
2022/07/04 01:45:04;;;;;;;3.20;2.33;;;18.20;99.90;;;;;;5030768;28;20112;-77
2022/07/04 01:47:30;;;;;;;3.53;2.60;;;18.20;99.90;;;;;;5031291;28;20504;-77
2022/07/04 01:49:55;;;;;;;9.90;2.58;;;18.10;99.90;;;;;;5030271;28;20033;-77
2022/07/04 01:52:21;;;;;;;5.70;2.47;;;18.10;99.90;;;;;;5030468;28;20025;-77
2022/07/04 01:54:47;;;;;;;5.25;2.55;;;18.10;99.90;;;;;;5030518;28;20073;-79
2022/07/04 01:57:12;;;;;;;4.57;2.30;;;18.10;99.90;;;;;;5031040;28;20029;-79
2022/07/04 02:02:23;;;;;;;4.75;2.42;;;18.00;99.90;;;;;;5031077;28;20171;-79
2022/07/04 02:04:48;;;;;;;4.68;2.58;;;18.00;99.90;;;;;;5030258;28;20116;-79
2022/07/04 02:07:14;;;;;;;6.93;2.65;;;18.00;99.90;;;;;;5030795;28;20040;-79
2022/07/04 02:09:39;;;;;;;3.97;2.58;;;17.90;99.90;;;;;;5031000;28;20381;-79
2022/07/04 02:14:49;;;;;;;3.42;2.38;;;17.90;99.90;;;;;;5030004;28;20106;-79
2022/07/04 02:17:14;;;;;;;7.97;2.88;;;17.90;99.90;;;;;;5029481;28;20064;-76
2022/07/04 02:19:40;;;;;;;6.07;3.10;;;17.90;99.90;;;;;;5032873;28;20481;-76
2022/07/04 02:22:05;;;;;;;6.05;2.50;;;17.90;99.90;;;;;;5028811;28;20021;-74
2022/07/04 02:24:31;;;;;;;4.72;2.53;;;17.90;99.90;;;;;;5032504;28;20049;-77
2022/07/04 02:26:56;;;;;;;5.35;2.83;;;17.80;99.90;;;;;;5031602;28;20032;-77
2022/07/04 02:29:22;;;;;;;5.18;2.45;;;17.90;99.90;;;;;;5031399;28;20481;-77
2022/07/04 02:31:47;;;;;;;5.07;2.80;;;17.90;99.90;;;;;;5030941;28;20030;-77
2022/07/04 02:34:13;;;;;;;3.22;2.60;;;17.90;99.90;;;;;;5020103;28;20799;-77
2022/07/04 02:36:39;;;;;;;4.80;2.40;;;17.90;99.90;;;;;;5031022;28;20493;-77
2022/07/04 02:39:05;;;;;;;5.40;2.92;;;17.90;99.90;;;;;;5030778;28;20033;-77
2022/07/04 02:41:31;;;;;;;3.70;2.50;;;17.90;99.90;;;;;;5029061;28;20041;-77
2022/07/04 02:43:57;;;;;;;4.88;2.83;;;17.90;99.90;;;;;;5032583;28;20120;-78
2022/07/04 02:46:23;;;;;;;4.28;2.60;;;17.90;99.90;;;;;;5025297;28;20057;-77
2022/07/04 02:48:49;;;;;;;4.07;2.85;;;17.90;99.90;;;;;;5012739;28;20147;-77
2022/07/04 02:51:14;;;;;;;3.60;2.60;;;17.90;99.90;;;;;;5022926;28;20022;-77
2022/07/04 02:53:40;;;;;;;5.93;2.67;;;17.80;99.90;;;;;;5032137;28;20049;-77
2022/07/04 02:56:05;;;;;;;5.22;2.92;;;17.80;99.90;;;;;;5033552;28;20477;-77
2022/07/04 02:58:32;;;;;;;3.47;2.40;;;17.80;99.90;;;;;;5033582;28;20359;-77
2022/07/04 03:00:58;;;;;;;3.05;2.75;;;17.70;99.90;;;;;;5033418;28;20021;-77
2022/07/04 03:03:24;;;;;;;3.80;2.70;;;17.70;99.90;;;;;;5033395;28;20026;-77
2022/07/04 03:05:49;;;;;;;3.95;2.70;;;17.70;99.90;;;;;;5032253;28;20454;-77
2022/07/04 03:08:15;;;;;;;3.47;2.80;;;17.70;99.90;;;;;;5033119;28;20048;-77
2022/07/04 03:10:40;;;;;;;6.25;2.60;;;17.70;99.90;;;;;;5033223;28;20033;-77
2022/07/04 03:13:06;;;;;;;6.55;2.70;;;17.70;99.90;;;;;;5033241;28;20633;-77
2022/07/04 03:15:32;;;;;;;4.88;2.55;;;17.70;99.90;;;;;;5032112;28;20136;-79
2022/07/04 03:17:57;;;;;;;4.53;2.65;;;17.60;99.90;;;;;;5030202;28;20031;-77
2022/07/04 03:20:23;;;;;;;6.00;2.80;;;17.60;99.90;;;;;;5029928;28;20033;-77
2022/07/04 03:22:49;;;;;;;4.20;2.63;;;17.60;99.90;;;;;;5028045;28;20033;-77
2022/07/04 03:25:14;;;;;;;3.80;2.40;;;17.60;99.90;;;;;;5030206;28;20025;-77
2022/07/04 03:27:40;;;;;;;3.20;2.90;;;17.60;99.90;;;;;;5031760;28;20055;-77
2022/07/04 03:30:06;;;;;;;3.65;2.90;;;17.60;99.90;;;;;;5032991;28;20032;-77
2022/07/04 03:32:32;;;;;;;4.75;2.67;;;17.50;99.90;;;;;;5032245;28;20392;-75
2022/07/04 03:34:57;;;;;;;7.03;2.97;;;17.50;99.90;;;;;;5032033;28;20029;-79
2022/07/04 03:37:23;;;;;;;3.42;2.42;;;17.50;99.90;;;;;;5029810;28;20370;-79
2022/07/04 03:39:48;;;;;;;3.67;2.83;;;17.50;99.90;;;;;;5029414;28;20025;-79
2022/07/04 03:42:14;;;;;;;5.38;2.80;;;17.40;99.90;;;;;;5029711;28;20026;-79
2022/07/04 03:44:39;;;;;;;5.82;2.67;;;17.40;99.90;;;;;;5030059;28;20022;-79
2022/07/04 03:47:05;;;;;;;3.72;2.67;;;17.40;99.90;;;;;;5029343;28;20067;-79
2022/07/04 03:49:30;;;;;;;6.60;3.00;;;17.50;99.90;;;;;;5028176;28;20078;-79
2022/07/04 03:51:56;;;;;;;3.90;2.83;;;17.50;99.90;;;;;;5029256;28;20041;-79
2022/07/04 03:54:22;;;;;;;3.15;2.63;;;17.50;99.90;;;;;;5032341;28;20090;-79
2022/07/04 03:56:47;;;;;;;2.92;2.63;;;17.50;99.90;;;;;;5032991;28;20421;-79
2022/07/04 03:59:13;;;;;;;4.85;3.05;;;17.50;99.90;;;;;;5033548;28;20081;-79
2022/07/04 04:01:38;;;;;;;5.88;3.15;;;17.60;99.90;;;;;;5033507;28;20033;-79
2022/07/04 04:06:48;;;;;;;3.97;2.63;;;17.60;99.90;;;;;;5033019;28;20063;-79
2022/07/04 04:09:18;;;;;;;5.35;3.03;;;17.70;99.90;;;;;;5032762;28;20486;-78
2022/07/04 04:11:43;;;;;;;4.38;3.13;;;17.70;99.90;;;;;;5030088;28;20409;-78
2022/07/04 04:14:09;;;;;;;4.20;3.00;;;17.80;99.90;;;;;;5032824;28;20093;-78
2022/07/04 04:16:35;;;;;;;4.80;3.00;;;17.80;99.90;;;;;;5033220;28;20022;-78
2022/07/04 04:19:01;;;;;;;5.32;2.80;;;17.80;99.90;;;;;;5033761;28;20082;-76
2022/07/04 04:21:26;;;;;;;4.38;2.45;;;17.80;99.90;;;;;;5034010;28;20033;-77
2022/07/04 04:23:52;;;;;;;6.53;2.60;;;17.90;99.90;;;;;;5033804;28;20022;-78
2022/07/04 04:26:17;;;;;;;6.03;2.90;;;17.90;99.90;;;;;;5033112;28;20110;-78
2022/07/04 04:28:43;;;;;;;6.30;2.90;;;17.90;99.90;;;;;;5030662;28;20029;-78
2022/07/04 04:31:09;;;;;;;4.38;2.53;;;17.90;99.90;;;;;;5032280;28;20504;-78
2022/07/04 04:33:35;;;;;;;7.45;2.80;;;18.00;99.90;;;;;;5031086;28;20026;-77
2022/07/04 04:36:01;;;;;;;3.40;2.58;;;18.00;99.90;;;;;;5032511;28;20021;-77
2022/07/04 04:38:26;;;;;;;4.95;3.03;;;18.10;99.90;;;;;;5031620;28;20037;-77
2022/07/04 04:40:52;;;;;;;3.85;2.72;;;18.20;99.90;;;;;;5034531;28;20052;-76
2022/07/04 04:43:18;;;;;;;6.53;2.65;;;18.20;99.90;;;;;;5034734;28;20510;-76
2022/07/04 04:45:43;;;;;;;5.72;2.85;;;18.20;99.90;;;;;;5034520;28;20444;-76
2022/07/04 04:48:09;;;;;;;5.18;2.88;;;18.20;99.90;;;;;;5032798;28;21144;-77
2022/07/04 04:50:35;;;;;;;5.53;2.70;;;18.30;99.90;;;;;;5029227;28;20385;-77
2022/07/04 04:53:01;;;;;;;4.93;3.00;;;18.30;99.90;;;;;;5032340;28;20033;-76
2022/07/04 04:55:26;;;;;;;8.68;3.40;;;18.40;99.90;;;;;;5034834;28;20413;-76
2022/07/04 04:57:52;;;;;;;3.90;2.92;;;18.30;99.90;;;;;;5034973;28;20060;-76
2022/07/04 05:00:18;;;;;;;5.95;2.88;;;18.40;99.90;;;;;;5029478;28;20030;-77
2022/07/04 05:02:44;;;;;;;5.57;3.00;;;18.40;99.90;;;;;;5031563;28;20045;-70
2022/07/04 05:05:10;;;;;;;8.18;3.08;;;18.50;99.90;;;;;;5030842;28;20025;-71
2022/07/04 05:07:36;;;;;;;6.05;3.08;;;18.50;99.90;;;;;;5030966;28;20029;-71
2022/07/04 05:10:02;;;;;;;8.18;2.78;;;18.50;99.90;;;;;;5030831;28;20091;-70
2022/07/04 05:12:28;;;;;;;4.55;3.08;;;18.50;99.90;;;;;;5028666;28;20037;-72
2022/07/04 05:14:55;;;;;;;3.03;2.30;;;18.60;99.90;;;;;;5028614;28;20043;-70
2022/07/04 05:17:21;;;;;;;6.15;2.42;;;18.60;99.90;;;;;;5028606;28;20104;-70
2022/07/04 05:19:48;;;;;;;6.53;2.92;;;18.60;99.90;;;;;;5028466;28;20526;-70
2022/07/04 05:22:14;;;;;;;4.00;2.42;;;18.60;99.90;;;;;;5027290;28;20021;-70
2022/07/04 05:24:40;;;;;;;4.93;2.90;;;18.60;99.90;;;;;;5028441;28;20071;-70
2022/07/04 05:27:06;;;;;;;5.20;3.10;;;18.60;99.90;;;;;;5027642;28;20033;-69
2022/07/04 05:29:32;;;;;;;4.13;3.08;;;18.60;99.90;;;;;;5027396;28;20029;-69
2022/07/04 05:31:58;;;;;;;4.57;2.97;;;18.60;99.90;;;;;;5028157;28;20053;-69
2022/07/04 05:34:23;;;;;;;5.47;3.00;;;18.70;99.90;;;;;;5028543;28;20116;-69
2022/07/04 05:36:49;;;;;;;3.50;2.65;;;18.70;99.90;;;;;;5027293;28;20131;-69
2022/07/04 05:39:14;;;;;;;4.15;2.90;;;18.70;99.90;;;;;;5027920;28;20071;-69
2022/07/04 05:41:40;;;;;;;4.55;2.80;;;18.80;99.90;;;;;;5027203;28;20449;-76
2022/07/04 05:44:06;;;;;;;3.95;2.40;;;18.80;99.90;;;;;;5029156;28;20029;-76
2022/07/04 05:46:32;;;;;;;4.03;2.30;;;18.90;99.90;;;;;;5026110;28;20033;-76
2022/07/04 05:48:57;;;;;;;6.57;2.53;;;19.00;99.90;;;;;;5025565;28;20108;-76
2022/07/04 05:51:23;;;;;;;5.90;2.80;;;19.10;99.90;;;;;;5028492;28;20568;-76
2022/07/04 05:53:49;;;;;;;4.28;2.72;;;19.10;99.90;;;;;;5028979;28;20445;-77
2022/07/04 05:56:15;;;;;;;4.35;2.30;;;19.20;99.90;;;;;;5025181;28;20021;-77
2022/07/04 05:58:41;;;;;;;5.78;2.42;;;19.30;99.90;;;;;;5024639;28;20032;-77
2022/07/04 06:01:07;;;;;;;4.05;2.30;;;19.40;99.90;;;;;;5028403;28;20026;-77
2022/07/04 06:03:36;;;;;;;2.88;2.08;;;19.40;99.90;;;;;;5028017;28;20037;-77
2022/07/04 06:06:03;;;;;;;5.38;2.20;;;19.50;99.90;;;;;;5030309;28;20025;-76
2022/07/04 06:08:29;;;;;;;3.80;1.88;;;19.40;99.90;;;;;;5025279;28;20555;-77
2022/07/04 06:10:54;;;;;;;2.92;2.00;;;19.40;99.90;;;;;;5024635;28;20030;-77
2022/07/04 06:13:20;;;;;;;3.35;2.20;;;19.40;99.90;;;;;;5024017;28;20037;-76
2022/07/04 06:15:46;;;;;;;4.72;2.47;;;19.30;99.90;;;;;;5024923;28;20037;-77
2022/07/04 06:18:12;;;;;;;6.72;2.45;;;19.30;99.90;;;;;;5026137;28;20818;-74
2022/07/04 06:20:39;;;;;;;3.83;2.42;;;19.30;99.90;;;;;;5030569;28;20096;-74
2022/07/04 06:23:05;;;;;;;4.18;2.17;;;19.30;99.90;;;;;;5030978;28;20026;-74
2022/07/04 06:25:31;;;;;;;4.03;2.10;;;19.30;99.90;;;;;;5034069;23;20069;-76
2022/07/04 06:27:57;;;;;;;3.97;2.30;;;19.30;99.90;;;;;;5004738;28;20067;-77
2022/07/04 06:30:26;;;;;;;4.90;2.28;;;19.20;99.90;;;;;;5013213;28;20184;-75
2022/07/04 06:32:54;;;;;;;5.60;2.22;;;19.30;99.90;;;;;;5015456;28;20121;-74
2022/07/04 06:38:06;;;;;;;5.00;2.40;;;19.40;99.90;;;;;;5017816;28;20076;-75
2022/07/04 06:40:32;;;;;;;5.03;1.90;;;19.40;99.90;;;;;;5015959;28;20034;-76
2022/07/04 06:42:57;;;;;;;4.35;2.22;;;19.50;99.90;;;;;;5019160;28;20018;-75
2022/07/04 06:45:23;;;;;;;4.05;2.38;;;19.60;99.90;;;;;;5015158;28;20036;-75
2022/07/04 06:47:50;;;;;;;3.10;1.90;;;19.60;99.90;;;;;;5019897;28;20025;-75
2022/07/04 06:50:16;;;;;;;4.18;2.28;;;19.60;99.90;;;;;;5017221;28;20052;-75
2022/07/04 06:52:41;;;;;;;4.03;1.98;;;19.60;99.90;;;;;;5019028;28;20405;-74
2022/07/04 06:55:07;;;;;;;3.08;2.10;;;19.60;99.90;;;;;;5019642;28;20037;-75
2022/07/04 06:57:33;;;;;;;3.50;1.83;;;19.60;99.90;;;;;;5013753;28;20030;-76
2022/07/04 06:59:59;;;;;;;4.70;2.30;;;19.60;99.90;;;;;;5014707;28;20193;-74
2022/07/04 07:02:24;;;;;;;4.90;2.10;;;19.60;99.90;;;;;;5015902;28;20018;-75
2022/07/04 07:04:50;;;;;;;4.40;2.28;;;19.60;99.90;;;;;;5012896;28;20034;-76
2022/07/04 07:07:16;;;;;;;4.07;2.17;;;19.60;99.90;;;;;;5012396;28;20444;-76
2022/07/04 07:09:44;;;;;;;6.72;2.25;;;19.60;99.90;;;;;;5014412;28;20509;-74
2022/07/04 07:12:12;;;;;;;2.63;2.05;;;19.60;99.90;;;;;;5015456;28;20026;-75
2022/07/04 07:14:38;;;;;;;4.75;2.10;;;19.50;99.90;;;;;;5016536;28;20125;-77
2022/07/04 07:17:03;;;;;;;5.13;2.33;;;19.50;99.90;;;;;;5010648;28;20057;-77
2022/07/04 07:19:29;;;;;;;4.47;2.08;;;19.40;99.90;;;;;;5012075;28;20077;-77
2022/07/04 07:21:54;;;;;;;6.18;2.03;;;19.50;99.90;;;;;;5008233;28;20025;-77
2022/07/04 07:24:20;;;;;;;3.47;2.15;;;19.40;99.90;;;;;;5013919;28;20056;-74
2022/07/04 07:26:45;;;;;;;2.90;2.00;;;19.40;99.90;;;;;;5017816;28;20030;-75
2022/07/04 07:29:11;;;;;;;6.45;2.33;;;19.40;99.90;;;;;;5015434;28;20030;-73
2022/07/04 07:31:37;;;;;;;5.60;2.20;;;19.40;99.90;;;;;;5019973;28;20129;-76
2022/07/04 07:34:02;;;;;;;3.05;2.30;;;19.40;99.90;;;;;;5015229;28;20148;-76
2022/07/04 07:36:28;;;;;;;4.28;2.30;;;19.40;99.90;;;;;;5013312;28;20098;-76
2022/07/04 07:38:55;;;;;;;3.70;2.00;;;19.50;99.90;;;;;;5013891;28;20030;-77
2022/07/04 07:41:21;;;;;;;3.55;2.40;;;19.60;99.90;;;;;;5009753;28;20486;-77
2022/07/04 07:43:47;;;;;;;2.90;2.10;;;19.70;99.90;;;;;;5013334;28;20026;-77
2022/07/04 07:46:12;;;;;;;4.40;2.10;;;19.80;99.90;;;;;;5011301;28;20079;-77
2022/07/04 07:48:38;;;;;;;3.28;2.00;;;19.90;99.90;;;;;;5007811;28;20101;-77
2022/07/04 07:51:03;;;;;;;4.60;2.00;;;20.00;99.90;;;;;;5012547;28;20535;-77
2022/07/04 07:53:29;;;;;;;3.65;1.98;;;20.10;99.90;;;;;;5013589;28;20076;-76
2022/07/04 07:55:54;;;;;;;8.00;2.25;;;20.30;99.90;;;;;;5025112;28;20056;-77
2022/07/04 07:58:20;;;;;;;4.95;1.80;;;20.40;99.90;;;;;;5014690;28;20075;-75
2022/07/04 08:00:46;;;;;;;3.15;1.77;;;20.50;99.90;;;;;;5011963;28;20054;-74
2022/07/04 08:05:56;;;;;;;3.10;1.95;;;20.80;99.90;;;;;;5015980;28;20049;-75
2022/07/04 08:08:23;;;;;;;2.97;1.70;;;20.90;99.90;;;;;;5019420;28;20030;-75
2022/07/04 08:10:49;;;;;;;5.13;1.90;;;21.00;99.90;;;;;;5009789;28;20518;-78
2022/07/04 08:13:15;;;;;;;2.80;1.70;;;21.10;99.90;;;;;;5013646;28;20022;-77
2022/07/04 08:15:40;;;;;;;4.35;2.15;;;21.20;99.90;;;;;;5014579;28;20485;-75
2022/07/04 08:18:06;;;;;;;4.18;1.80;;;21.30;99.90;;;;;;5025923;28;20367;-74
2022/07/04 08:20:32;;;;;;;7.57;1.98;;;21.30;99.90;;;;;;5015580;28;20034;-75
2022/07/04 08:22:57;;;;;;;5.88;1.90;;;21.40;99.90;;;;;;5013839;28;20022;-74
2022/07/04 08:25:23;;;;;;;3.38;1.65;;;21.50;99.90;;;;;;5018935;28;20509;-74
2022/07/04 08:27:48;;;;;;;4.18;1.80;;;21.50;99.90;;;;;;5016334;28;20026;-75
2022/07/04 08:30:14;;;;;;;2.58;2.03;;;21.60;99.90;;;;;;5015354;28;20184;-74
2022/07/04 08:32:40;;;;;;;5.78;1.70;;;21.70;99.90;;;;;;5014903;28;20133;-74
2022/07/04 08:35:06;;;;;;;3.13;1.50;;;21.60;99.90;;;;;;5012763;28;20402;-77
2022/07/04 08:37:41;;;;;;;3.70;1.50;;;21.80;99.90;;;;;;5013407;28;20026;-78
2022/07/04 08:40:08;;;;;;;3.75;1.65;;;21.90;99.90;;;;;;5014418;28;20028;-77
2022/07/04 08:42:38;;;;;;;3.80;1.60;;;22.10;99.90;;;;;;5024710;28;20025;-78
2022/07/04 08:45:05;;;;;;;2.38;1.30;;;22.20;99.90;;;;;;5012687;28;20383;-77
2022/07/04 08:47:34;;;;;;;3.95;1.50;;;22.30;99.90;;;;;;5012769;28;20234;-78
2022/07/04 08:50:12;;;;;;;4.65;1.48;;;22.50;99.90;;;;;;5012135;28;20026;-77
2022/07/04 08:52:42;;;;;;;2.22;1.40;;;22.60;99.90;;;;;;5004375;28;20022;-78
2022/07/04 09:00:43;;;;;;;6.68;1.30;;;22.80;99.90;;;;;;5009719;28;20593;-77
2022/07/04 09:03:10;;;;;;;2.20;1.38;;;22.90;99.90;;;;;;5009638;28;20026;-77
2022/07/04 09:05:36;;;;;;;2.30;1.35;;;23.00;99.90;;;;;;5008212;28;20033;-77
2022/07/04 09:08:03;;;;;;;3.10;1.30;;;23.10;99.90;;;;;;5008006;28;20356;-77
2022/07/04 09:10:29;;;;;;;5.20;1.50;;;23.30;99.90;;;;;;5009869;28;20554;-77
2022/07/04 09:12:55;;;;;;;3.30;1.67;;;23.40;99.90;;;;;;5009817;28;20114;-77
2022/07/04 09:15:21;;;;;;;2.65;1.20;;;23.70;99.90;;;;;;5008962;28;20487;-77
2022/07/04 09:17:47;;;;;;;1.80;1.00;;;23.80;99.90;;;;;;5008888;28;20037;-77
2022/07/04 09:20:21;;;;;;;4.22;1.20;;;23.90;99.90;;;;;;5009529;28;20022;-77
2022/07/04 09:22:49;;;;;;;2.03;1.45;;;24.10;99.90;;;;;;5001317;28;20471;-77
2022/07/04 09:25:14;;;;;;;3.13;1.08;;;24.40;99.90;;;;;;4996510;28;20053;-77
2022/07/04 09:27:52;;;;;;;1.63;1.05;;;24.60;99.90;;;;;;5008732;28;20049;-77
2022/07/04 09:30:50;;;;;;;3.03;1.30;;;24.60;99.90;;;;;;5006700;28;20049;-78
2022/07/04 09:33:18;;;;;;;2.00;1.20;;;24.80;99.90;;;;;;5008686;28;20053;-78
2022/07/04 09:35:44;;;;;;;1.23;1.00;;;25.10;99.90;;;;;;5008725;28;20026;-78
2022/07/04 09:38:12;;;;;;;2.33;1.30;;;25.30;99.90;;;;;;5007788;28;20520;-78
2022/07/04 09:43:24;;;;;;;3.40;1.45;;;25.50;99.90;;;;;;5008929;28;20024;-77
2022/07/04 09:45:58;;;;;;;1.33;0.93;;;25.80;99.90;;;;;;5007623;28;20134;-77
2022/07/04 09:48:25;;;;;;;3.95;1.17;;;26.00;99.90;;;;;;5008968;28;20056;-77
2022/07/04 09:50:51;;;;;;;2.45;1.20;;;26.30;99.90;;;;;;5007727;28;20095;-77
2022/07/04 09:53:17;;;;;;;1.80;1.13;;;26.30;99.90;;;;;;5008887;28;20030;-77
2022/07/04 09:55:45;;;;;;;2.28;1.20;;;26.40;99.90;;;;;;5008726;28;20401;-77
2022/07/04 09:58:12;;;;;;;3.95;1.20;;;26.40;99.90;;;;;;5008400;28;20032;-77
2022/07/04 10:00:40;;;;;;;1.88;1.30;;;26.50;99.90;;;;;;5006924;28;20068;-77
2022/07/04 10:03:25;;;;;;;2.25;1.30;;;26.80;99.90;;;;;;5007040;28;20022;-77
2022/07/04 10:06:15;;;;;;;2.50;1.25;;;27.10;99.90;;;;;;5008700;28;20029;-78
2022/07/04 10:08:42;;;;;;;3.03;1.35;;;27.10;99.90;;;;;;4996834;28;20053;-78
2022/07/04 10:11:11;;;;;;;2.85;1.27;;;27.20;99.90;;;;;;5008399;28;20121;-78
2022/07/04 10:13:38;;;;;;;2.90;1.13;;;27.20;99.90;;;;;;5008414;28;20032;-77
2022/07/04 10:16:03;;;;;;;2.30;1.42;;;27.00;99.90;;;;;;5007996;28;20044;-78
2022/07/04 10:18:29;;;;;;;2.42;1.40;;;26.80;99.90;;;;;;5008079;28;20064;-78
2022/07/04 10:20:56;;;;;;;2.33;1.30;;;26.70;99.90;;;;;;5008373;28;20021;-78
2022/07/04 10:23:23;;;;;;;2.47;1.42;;;26.90;99.90;;;;;;4999462;28;20104;-78
2022/07/04 10:25:50;;;;;;;2.10;1.38;;;26.90;99.90;;;;;;4997066;28;20053;-78
2022/07/04 10:28:19;;;;;;;3.83;1.38;;;27.00;99.90;;;;;;5007164;28;20026;-78
2022/07/04 10:30:51;;;;;;;2.83;1.10;;;27.00;99.90;;;;;;5007264;28;20029;-77
2022/07/04 10:33:26;;;;;;;3.63;1.65;;;26.90;99.90;;;;;;5007458;28;20041;-78
2022/07/04 10:35:57;;;;;;;4.13;1.40;;;26.70;99.90;;;;;;5007918;28;20088;-77
2022/07/04 10:38:34;;;;;;;3.28;1.38;;;26.60;99.90;;;;;;5007620;28;20513;-76
2022/07/04 10:41:08;;;;;;;2.13;1.35;;;26.30;99.90;;;;;;5006477;28;20485;-77
2022/07/04 10:43:37;;;;;;;3.67;1.52;;;26.40;99.90;;;;;;5007682;28;20096;-77
2022/07/04 10:46:02;;;;;;;3.78;1.30;;;26.50;99.90;;;;;;5006451;28;20038;-77
2022/07/04 10:48:29;;;;;;;2.42;1.23;;;26.70;99.90;;;;;;5002461;28;20029;-77
2022/07/04 10:51:06;;;;;;;2.60;1.40;;;26.60;99.90;;;;;;5006951;28;20427;-77
2022/07/04 10:53:53;;;;;;;2.45;1.30;;;26.70;99.90;;;;;;5001080;28;20030;-77
2022/07/04 10:56:18;;;;;;;3.03;1.20;;;26.70;99.90;;;;;;5005596;28;20051;-77
2022/07/04 10:58:44;;;;;;;2.15;1.33;;;26.80;99.90;;;;;;5005769;28;20494;-77
2022/07/04 11:01:17;;;;;;;2.08;1.40;;;27.00;99.90;;;;;;5007432;28;20018;-77
2022/07/04 11:03:53;;;;;;;2.25;1.25;;;27.00;99.90;;;;;;5007325;28;20665;-77
2022/07/04 11:06:34;;;;;;;2.40;1.20;;;27.00;99.90;;;;;;5006420;28;20455;-77
2022/07/04 11:09:19;;;;;;;2.83;1.50;;;27.00;99.90;;;;;;5008090;28;20033;-77
2022/07/04 11:11:54;;;;;;;1.50;1.23;;;27.00;99.90;;;;;;5007032;28;20053;-77
2022/07/04 11:14:45;;;;;;;1.90;1.15;;;27.10;99.90;;;;;;5007752;28;20109;-77
2022/07/04 11:17:11;;;;;;;3.95;1.85;;;27.10;99.90;;;;;;5007541;28;20030;-77
2022/07/04 11:19:38;;;;;;;2.22;1.55;;;27.10;99.90;;;;;;5007259;28;20072;-77
2022/07/04 11:22:08;;;;;;;2.30;1.35;;;27.00;99.90;;;;;;5001915;28;20105;-77
2022/07/04 11:24:34;;;;;;;1.70;1.30;;;27.10;99.90;;;;;;5005761;28;20046;-77
2022/07/04 11:27:01;;;;;;;2.55;1.10;;;27.30;99.90;;;;;;5007058;28;20037;-77
2022/07/04 11:29:27;;;;;;;2.28;1.40;;;27.50;99.90;;;;;;5006917;28;20026;-77
2022/07/04 11:31:54;;;;;;;1.90;1.30;;;27.60;99.90;;;;;;5006779;28;20387;-77
2022/07/04 11:34:19;;;;;;;2.78;1.23;;;27.60;99.90;;;;;;5006643;28;20018;-77
2022/07/04 11:36:47;;;;;;;3.10;1.50;;;27.80;99.90;;;;;;5005911;28;20041;-77
2022/07/04 11:39:23;;;;;;;1.45;1.33;;;27.80;99.90;;;;;;5007046;28;20544;-76
2022/07/04 11:47:31;;;;;;;2.45;1.23;;;28.20;99.90;;;;;;5011508;28;20509;-76
2022/07/04 11:49:58;;;;;;;2.95;1.30;;;27.90;99.90;;;;;;5008712;28;20030;-76
2022/07/04 11:52:37;;;;;;;5.30;1.25;;;27.70;99.90;;;;;;5009812;28;20484;-76
2022/07/04 11:55:04;;;;;;;4.03;1.38;;;27.80;99.90;;;;;;5004654;28;20030;-76
2022/07/04 11:57:54;;;;;;;2.15;1.30;;;27.70;99.90;;;;;;5012054;28;20064;-76
2022/07/04 12:00:26;;;;;;;2.20;1.15;;;27.70;99.90;;;;;;4998485;28;20024;-76
2022/07/04 12:02:51;;;;;;;2.83;1.42;;;27.70;99.90;;;;;;5008195;28;20068;-76
2022/07/04 12:05:18;;;;;;;4.35;1.92;;;27.80;99.90;;;;;;5009039;28;20772;-76
2022/07/04 12:07:46;;;;;;;3.85;1.40;;;28.00;99.90;;;;;;5008168;28;20694;-76
2022/07/04 12:10:22;;;;;;;1.67;1.10;;;28.00;99.90;;;;;;4994246;28;20026;-76
2022/07/04 12:12:57;;;;;;;3.30;1.40;;;28.30;99.90;;;;;;5007003;28;20034;-76
2022/07/04 12:15:23;;;;;;;;;;;28.50;99.90;;;;;;4998882;28;20050;-76
2022/07/04 12:17:54;;;;;;;3.10;1.08;;;28.80;99.90;;;;;;5010725;28;19919;-76
2022/07/04 12:20:24;;;;;;;3.22;1.20;;;29.00;99.90;;;;;;5010471;28;20068;-77
2022/07/04 12:22:57;;;;;;;3.28;1.27;;;29.00;99.90;;;;;;5008252;28;20048;-77
2022/07/04 12:25:27;;;;;;;1.92;1.40;;;28.80;99.90;;;;;;5009335;28;20052;-77
2022/07/04 12:28:04;;;;;;;3.17;1.30;;;29.10;99.90;;;;;;5022048;28;20057;-77
2022/07/04 12:30:33;;;;;;;2.75;1.30;;;28.90;99.90;;;;;;5011047;28;20030;-77
2022/07/04 12:33:05;;;;;;;3.22;1.45;;;28.70;99.90;;;;;;5010481;28;20069;-77
2022/07/04 12:35:42;;;;;;;2.85;1.40;;;28.70;99.90;;;;;;5007180;28;20036;-77
2022/07/04 12:38:09;;;;;;;3.40;1.42;;;28.60;99.90;;;;;;5010191;28;20040;-77
2022/07/04 12:40:36;;;;;;;2.42;1.20;;;28.50;99.90;;;;;;5010061;28;20022;-77
2022/07/04 12:43:03;;;;;;;7.45;1.40;;;28.30;99.90;;;;;;5009652;28;20041;-77
2022/07/04 12:45:46;;;;;;;2.92;1.20;;;28.40;99.90;;;;;;5009552;28;20750;-77
2022/07/04 12:48:25;;;;;;;4.55;1.58;;;28.50;99.90;;;;;;5009658;28;20061;-77
2022/07/04 12:50:52;;;;;;;3.83;1.40;;;28.70;99.90;;;;;;5009417;28;20029;-77
2022/07/04 12:53:18;;;;;;;5.10;1.42;;;28.80;99.90;;;;;;5009698;28;20076;-78
2022/07/04 12:55:46;;;;;;;2.60;1.20;;;28.90;99.90;;;;;;5008983;28;20030;-78
2022/07/04 12:58:13;;;;;;;2.72;1.30;;;29.00;99.90;;;;;;5009544;28;20045;-78
2022/07/04 13:00:39;;;;;;;2.55;1.30;;;28.90;99.90;;;;;;5010313;28;20076;-76
2022/07/04 13:03:06;;;;;;;3.20;1.63;;;29.10;99.90;;;;;;5014655;28;20095;-75
2022/07/04 13:05:35;;;;;;;2.10;1.17;;;29.30;99.90;;;;;;5018773;28;20044;-76
2022/07/04 13:08:01;;;;;;;2.72;1.40;;;29.60;99.90;;;;;;5014693;28;20447;-76
2022/07/04 13:10:26;;;;;;;3.60;1.40;;;29.70;99.90;;;;;;5014569;28;20060;-76
2022/07/04 13:12:52;;;;;;;2.67;1.40;;;29.90;99.90;;;;;;5022440;28;20026;-75
2022/07/04 13:15:18;;;;;;;3.88;1.20;;;29.90;99.90;;;;;;5014590;28;20037;-76